createdAt,value
2023-03-15T00:00:10.568Z,9.76
2023-03-15T00:01:33.253Z,9.73
2023-03-15T00:02:36.384Z,9.74
2023-03-15T00:03:39.989Z,9.75
2023-03-15T00:04:42.664Z,9.76
2023-03-15T00:05:46.206Z,9.78
2023-03-15T00:06:48.853Z,9.79
2023-03-15T00:07:51.468Z,9.83
2023-03-15T00:08:54.124Z,9.81
2023-03-15T00:09:56.985Z,9.81
2023-03-15T00:11:00.425Z,9.83
2023-03-15T00:12:03.139Z,9.87
2023-03-15T00:13:05.855Z,9.88
2023-03-15T00:14:08.713Z,9.89
2023-03-15T00:15:13.382Z,9.91
2023-03-15T00:16:18.188Z,9.92
2023-03-15T00:17:22.858Z,9.93
2023-03-15T00:18:25.831Z,9.95
2023-03-15T00:19:28.481Z,9.95
2023-03-15T00:20:31.256Z,9.96
2023-03-15T00:21:34.393Z,9.96
2023-03-15T00:22:37.063Z,9.97
2023-03-15T00:23:39.699Z,9.99
2023-03-15T00:24:42.463Z,10.00
2023-03-15T00:25:45.815Z,10.02
2023-03-15T00:26:48.479Z,10.05
2023-03-15T00:27:51.168Z,10.07
2023-03-15T00:28:53.852Z,10.09
2023-03-15T00:29:56.507Z,10.10
2023-03-15T00:31:06.834Z,10.08
2023-03-15T00:32:09.819Z,10.06
2023-03-15T00:33:14.293Z,10.03
2023-03-15T00:34:18.983Z,9.94
2023-03-15T00:35:22.230Z,9.79
2023-03-15T00:36:25.369Z,9.64
2023-03-15T00:37:28.468Z,9.45
2023-03-15T00:38:31.995Z,9.29
2023-03-15T00:39:37.874Z,9.13
2023-03-15T00:40:44.090Z,8.98
2023-03-15T00:41:47.279Z,8.83
2023-03-15T00:42:50.755Z,8.69
2023-03-15T00:43:53.476Z,8.54
2023-03-15T00:44:56.180Z,8.40
2023-03-15T00:45:59.351Z,8.26
2023-03-15T00:47:02.033Z,8.13
2023-03-15T00:48:04.977Z,8.01
2023-03-15T00:49:07.628Z,7.88
2023-03-15T00:50:10.675Z,7.72
2023-03-15T00:51:14.896Z,7.57
2023-03-15T00:52:18.914Z,7.43
2023-03-15T00:53:22.616Z,7.28
2023-03-15T00:54:25.256Z,7.15
2023-03-15T00:55:28.208Z,7.02
2023-03-15T00:56:31.078Z,6.86
2023-03-15T00:57:37.166Z,6.72
2023-03-15T00:58:40.404Z,6.60
2023-03-15T00:59:45.073Z,6.48
2023-03-15T01:00:47.766Z,6.36
2023-03-15T01:01:51.304Z,6.26
2023-03-15T01:02:54.906Z,6.18
2023-03-15T01:03:58.001Z,6.10
2023-03-15T01:05:01.791Z,6.04
2023-03-15T01:06:05.459Z,5.98
2023-03-15T01:07:09.465Z,5.90
2023-03-15T01:08:13.706Z,5.83
2023-03-15T01:09:17.462Z,5.74
2023-03-15T01:10:21.347Z,5.69
2023-03-15T01:11:25.647Z,5.63
2023-03-15T01:12:29.589Z,5.57
2023-03-15T01:13:33.951Z,5.51
2023-03-15T01:14:39.099Z,5.47
2023-03-15T01:15:45.924Z,5.42
2023-03-15T01:16:48.839Z,5.38
2023-03-15T01:17:51.568Z,5.34
2023-03-15T01:18:54.624Z,5.31
2023-03-15T01:19:58.318Z,5.26
2023-03-15T01:21:01.114Z,5.22
2023-03-15T01:22:04.826Z,5.18
2023-03-15T01:23:07.577Z,5.15
2023-03-15T01:24:14.538Z,5.12
2023-03-15T01:25:18.502Z,5.08
2023-03-15T01:26:23.807Z,5.06
2023-03-15T01:27:26.482Z,5.05
2023-03-15T01:28:29.905Z,5.03
2023-03-15T01:29:32.950Z,4.99
2023-03-15T01:30:37.326Z,5.00
2023-03-15T01:31:41.164Z,4.98
2023-03-15T01:32:44.071Z,4.96
2023-03-15T01:33:47.972Z,4.94
2023-03-15T01:34:50.735Z,4.91
2023-03-15T01:36:04.500Z,4.88
2023-03-15T01:37:07.749Z,4.86
2023-03-15T01:38:16.114Z,4.84
2023-03-15T01:39:20.037Z,4.80
2023-03-15T01:40:22.970Z,4.81
2023-03-15T01:41:27.323Z,4.78
2023-03-15T01:42:30.139Z,4.77
2023-03-15T01:43:33.530Z,4.74
2023-03-15T01:45:05.529Z,4.74
2023-03-15T01:46:17.803Z,4.72
2023-03-15T01:47:21.462Z,4.69
2023-03-15T01:48:29.562Z,4.68
2023-03-15T01:49:33.773Z,4.68
2023-03-15T01:50:36.957Z,4.66
2023-03-15T01:51:43.086Z,4.62
2023-03-15T01:52:45.963Z,4.62
2023-03-15T01:53:58.245Z,4.62
2023-03-15T01:55:05.515Z,4.60
2023-03-15T01:56:09.670Z,4.60
2023-03-15T01:57:24.134Z,4.58
2023-03-15T01:58:27.518Z,4.57
2023-03-15T01:59:33.219Z,4.58
2023-03-15T02:00:37.412Z,4.58
2023-03-15T02:01:45.724Z,4.59
2023-03-15T02:03:04.777Z,4.57
2023-03-15T02:04:09.854Z,4.57
2023-03-15T02:05:18.459Z,4.59
2023-03-15T02:06:21.720Z,4.57
2023-03-15T02:07:29.197Z,4.57
2023-03-15T02:08:34.072Z,4.58
2023-03-15T02:09:42.918Z,4.56
2023-03-15T02:10:48.187Z,4.57
2023-03-15T02:11:51.692Z,4.58
2023-03-15T02:12:55.731Z,4.56
2023-03-15T02:14:00.499Z,4.57
2023-03-15T02:15:04.749Z,4.55
2023-03-15T02:16:08.225Z,4.59
2023-03-15T02:17:20.611Z,4.57
2023-03-15T02:18:24.363Z,4.56
2023-03-15T02:19:34.007Z,4.57
2023-03-15T02:20:49.700Z,4.58
2023-03-15T02:22:01.155Z,4.54
2023-03-15T02:23:05.576Z,4.56
2023-03-15T02:24:08.269Z,4.52
2023-03-15T02:25:18.192Z,4.51
2023-03-15T02:26:30.128Z,4.53
2023-03-15T02:27:35.662Z,4.49
2023-03-15T02:28:39.087Z,4.50
2023-03-15T02:29:42.312Z,4.50
2023-03-15T02:30:45.976Z,4.49
2023-03-15T02:31:49.530Z,4.47
2023-03-15T02:32:52.373Z,4.46
2023-03-15T02:33:58.158Z,4.45
2023-03-15T02:35:00.855Z,4.44
2023-03-15T02:36:08.431Z,4.43
2023-03-15T02:37:12.761Z,4.42
2023-03-15T02:38:15.463Z,4.39
2023-03-15T02:39:21.096Z,4.39
2023-03-15T02:40:24.646Z,4.38
2023-03-15T02:41:38.850Z,4.38
2023-03-15T02:42:42.943Z,4.38
2023-03-15T02:43:46.807Z,4.36
2023-03-15T02:44:50.835Z,4.39
2023-03-15T02:45:53.650Z,4.36
2023-03-15T02:46:59.731Z,4.36
2023-03-15T02:48:03.700Z,4.39
2023-03-15T02:49:08.418Z,4.36
2023-03-15T02:50:11.320Z,4.37
2023-03-15T02:51:19.180Z,4.38
2023-03-15T02:52:22.130Z,4.38
2023-03-15T02:53:24.878Z,4.37
2023-03-15T02:54:27.554Z,4.35
2023-03-15T02:55:32.767Z,4.36
2023-03-15T02:56:35.539Z,4.38
2023-03-15T02:57:38.375Z,4.38
2023-03-15T02:58:41.664Z,4.34
2023-03-15T02:59:44.382Z,4.37
2023-03-15T03:00:47.958Z,4.35
2023-03-15T03:01:51.216Z,4.33
2023-03-15T03:02:54.479Z,4.33
2023-03-15T03:03:57.175Z,4.32
2023-03-15T03:05:00.443Z,4.34
2023-03-15T03:06:03.159Z,4.34
2023-03-15T03:07:05.840Z,4.34
2023-03-15T03:08:16.679Z,4.34
2023-03-15T03:09:19.717Z,4.33
2023-03-15T03:10:22.884Z,4.33
2023-03-15T03:11:28.676Z,4.34
2023-03-15T03:12:32.978Z,4.34
2023-03-15T03:13:36.223Z,4.34
2023-03-15T03:14:39.968Z,4.35
2023-03-15T03:15:45.907Z,4.35
2023-03-15T03:16:50.491Z,4.36
2023-03-15T03:17:54.558Z,4.36
2023-03-15T03:18:58.817Z,4.37
2023-03-15T03:20:10.705Z,4.37
2023-03-15T03:21:15.966Z,4.38
2023-03-15T03:22:19.480Z,4.38
2023-03-15T03:23:25.786Z,4.39
2023-03-15T03:24:28.574Z,4.39
2023-03-15T03:25:31.576Z,4.39
2023-03-15T03:26:34.335Z,4.39
2023-03-15T03:27:37.751Z,4.39
2023-03-15T03:28:41.815Z,4.39
2023-03-15T03:29:44.929Z,4.39
2023-03-15T03:30:47.887Z,4.40
2023-03-15T03:31:50.942Z,4.40
2023-03-15T03:32:56.127Z,4.36
2023-03-15T03:33:58.888Z,4.36
2023-03-15T03:35:02.689Z,4.36
2023-03-15T03:36:05.692Z,4.39
2023-03-15T03:37:08.532Z,4.36
2023-03-15T03:38:44.944Z,4.33
2023-03-15T03:39:47.782Z,4.37
2023-03-15T03:40:51.662Z,4.34
2023-03-15T03:41:54.356Z,4.35
2023-03-15T03:42:57.015Z,4.37
2023-03-15T03:44:00.012Z,4.34
2023-03-15T03:45:04.098Z,4.33
2023-03-15T03:46:12.603Z,4.36
2023-03-15T03:47:19.417Z,4.34
2023-03-15T03:48:22.207Z,4.33
2023-03-15T03:49:24.991Z,4.33
2023-03-15T03:50:28.120Z,4.34
2023-03-15T03:51:31.270Z,4.37
2023-03-15T03:52:33.995Z,4.34
2023-03-15T03:53:41.424Z,4.36
2023-03-15T03:54:44.156Z,4.37
2023-03-15T03:55:46.873Z,4.35
2023-03-15T03:56:53.537Z,4.37
2023-03-15T03:57:58.426Z,4.37
2023-03-15T03:59:20.322Z,4.38
2023-03-15T04:00:30.958Z,4.37
2023-03-15T04:01:33.754Z,4.37
2023-03-15T04:02:36.506Z,4.38
2023-03-15T04:03:42.113Z,4.38
2023-03-15T04:04:50.351Z,4.38
2023-03-15T04:05:55.907Z,4.38
2023-03-15T04:06:59.878Z,4.37
2023-03-15T04:08:07.940Z,4.37
2023-03-15T04:09:15.814Z,4.37
2023-03-15T04:10:26.927Z,4.36
2023-03-15T04:11:30.165Z,4.35
2023-03-15T04:12:37.141Z,4.34
2023-03-15T04:13:40.196Z,4.33
2023-03-15T04:14:43.039Z,4.32
2023-03-15T04:15:47.739Z,4.31
2023-03-15T04:16:50.549Z,4.30
2023-03-15T04:17:58.530Z,4.29
2023-03-15T04:19:08.178Z,4.29
2023-03-15T04:20:13.058Z,4.29
2023-03-15T04:21:23.092Z,4.29
2023-03-15T04:22:28.841Z,4.28
2023-03-15T04:23:50.103Z,4.28
2023-03-15T04:25:04.792Z,4.28
2023-03-15T04:26:30.523Z,4.27
2023-03-15T04:27:45.031Z,4.27
2023-03-15T04:29:09.369Z,4.27
2023-03-15T04:30:35.214Z,4.26
2023-03-15T04:32:02.161Z,4.26
2023-03-15T04:33:24.579Z,4.24
2023-03-15T04:34:39.110Z,4.25
2023-03-15T04:35:49.303Z,4.24
2023-03-15T04:37:12.273Z,4.24
2023-03-15T04:38:32.377Z,4.24
2023-03-15T04:39:43.238Z,4.24
2023-03-15T04:41:10.937Z,4.22
2023-03-15T04:42:32.307Z,4.20
2023-03-15T04:43:56.399Z,4.20
2023-03-15T04:45:09.434Z,4.23
2023-03-15T04:46:28.611Z,4.23
2023-03-15T04:47:51.815Z,4.23
2023-03-15T04:49:20.722Z,4.23
2023-03-15T04:50:30.915Z,4.23
2023-03-15T04:51:52.618Z,4.23
2023-03-15T04:53:07.745Z,4.23
2023-03-15T04:54:30.163Z,4.23
2023-03-15T04:55:58.859Z,4.23
2023-03-15T04:57:10.394Z,4.23
2023-03-15T04:58:30.921Z,4.22
2023-03-15T04:59:59.813Z,4.22
2023-03-15T05:01:23.847Z,4.22
2023-03-15T05:02:55.239Z,4.22
2023-03-15T05:04:05.721Z,4.20
2023-03-15T05:05:35.192Z,4.20
2023-03-15T05:07:00.416Z,4.19
2023-03-15T05:08:21.631Z,4.19
2023-03-15T05:09:48.045Z,4.18
2023-03-15T05:11:06.582Z,4.18
2023-03-15T05:12:33.793Z,4.18
2023-03-15T05:13:56.825Z,4.19
2023-03-15T05:15:25.595Z,4.19
2023-03-15T05:16:56.485Z,4.19
2023-03-15T05:18:08.620Z,4.19
2023-03-15T05:19:37.546Z,4.20
2023-03-15T05:20:59.113Z,4.21
2023-03-15T05:22:25.521Z,4.22
2023-03-15T05:23:43.252Z,4.22
2023-03-15T05:25:04.800Z,4.22
2023-03-15T05:26:26.145Z,4.23
2023-03-15T05:27:50.779Z,4.23
2023-03-15T05:29:02.288Z,4.23
2023-03-15T05:30:22.241Z,4.24
2023-03-15T05:31:43.378Z,4.23
2023-03-15T05:32:58.051Z,4.23
2023-03-15T05:34:24.342Z,4.23
2023-03-15T05:35:37.872Z,4.22
2023-03-15T05:37:10.469Z,4.23
2023-03-15T05:38:37.771Z,4.23
2023-03-15T05:40:01.447Z,4.23
2023-03-15T05:41:23.932Z,4.23
2023-03-15T05:42:35.499Z,4.23
2023-03-15T05:43:56.598Z,4.22
2023-03-15T05:45:38.351Z,4.21
2023-03-15T05:47:00.297Z,4.21
2023-03-15T05:48:21.863Z,4.22
2023-03-15T05:50:00.324Z,4.22
2023-03-15T05:51:20.854Z,4.21
2023-03-15T05:52:41.839Z,4.23
2023-03-15T05:53:51.335Z,4.22
2023-03-15T05:55:14.342Z,4.20
2023-03-15T05:56:28.973Z,4.20
2023-03-15T05:57:52.038Z,4.19
2023-03-15T05:59:11.425Z,4.19
2023-03-15T06:00:26.392Z,4.19
2023-03-15T06:01:29.959Z,4.18
2023-03-15T06:02:41.462Z,4.19
2023-03-15T06:03:55.610Z,4.18
2023-03-15T06:04:59.518Z,4.17
2023-03-15T06:06:03.437Z,4.17
2023-03-15T06:07:11.714Z,4.16
2023-03-15T06:08:14.478Z,4.16
2023-03-15T06:09:19.140Z,4.17
2023-03-15T06:10:23.317Z,4.18
2023-03-15T06:11:26.359Z,4.19
2023-03-15T06:12:29.761Z,4.19
2023-03-15T06:13:33.269Z,4.19
2023-03-15T06:14:37.711Z,4.19
2023-03-15T06:15:43.126Z,4.20
2023-03-15T06:16:46.061Z,4.20
2023-03-15T06:17:49.174Z,4.22
2023-03-15T06:18:51.867Z,4.23
2023-03-15T06:19:54.880Z,4.25
2023-03-15T06:20:57.581Z,4.26
2023-03-15T06:22:00.269Z,4.27
2023-03-15T06:23:14.576Z,4.28
2023-03-15T06:24:21.228Z,4.28
2023-03-15T06:25:24.571Z,4.28
2023-03-15T06:26:27.260Z,4.28
2023-03-15T06:27:33.828Z,4.29
2023-03-15T06:28:37.676Z,4.29
2023-03-15T06:29:40.819Z,4.30
2023-03-15T06:30:43.768Z,4.31
2023-03-15T06:31:49.722Z,4.31
2023-03-15T06:32:53.212Z,4.32
2023-03-15T06:33:56.048Z,4.34
2023-03-15T06:34:58.786Z,4.34
2023-03-15T06:36:01.540Z,4.35
2023-03-15T06:37:04.865Z,4.33
2023-03-15T06:38:07.622Z,4.37
2023-03-15T06:39:12.534Z,4.34
2023-03-15T06:40:15.366Z,4.35
2023-03-15T06:41:18.651Z,4.36
2023-03-15T06:42:21.641Z,4.40
2023-03-15T06:43:24.949Z,4.39
2023-03-15T06:44:27.779Z,4.41
2023-03-15T06:45:33.989Z,4.41
2023-03-15T06:46:37.166Z,4.45
2023-03-15T06:47:40.295Z,4.44
2023-03-15T06:48:43.213Z,4.49
2023-03-15T06:49:50.393Z,4.51
2023-03-15T06:50:53.389Z,4.49
2023-03-15T06:51:56.097Z,4.54
2023-03-15T06:52:59.902Z,4.53
2023-03-15T06:54:03.072Z,4.55
2023-03-15T06:55:07.187Z,4.60
2023-03-15T06:56:10.015Z,4.62
2023-03-15T06:57:13.090Z,4.67
2023-03-15T06:58:15.884Z,4.69
2023-03-15T06:59:18.527Z,4.67
2023-03-15T07:00:22.629Z,4.70
2023-03-15T07:01:25.359Z,4.67
2023-03-15T07:02:28.137Z,4.69
2023-03-15T07:03:30.988Z,4.65
2023-03-15T07:04:33.647Z,4.65
2023-03-15T07:05:37.281Z,4.65
2023-03-15T07:06:40.000Z,4.65
2023-03-15T07:07:42.973Z,4.66
2023-03-15T07:08:45.641Z,4.65
2023-03-15T07:09:48.408Z,4.67
2023-03-15T07:10:51.136Z,4.65
2023-03-15T07:11:53.801Z,4.68
2023-03-15T07:12:56.585Z,4.69
2023-03-15T07:13:59.258Z,4.67
2023-03-15T07:15:02.019Z,4.69
2023-03-15T07:16:04.946Z,4.73
2023-03-15T07:17:07.868Z,4.72
2023-03-15T07:18:10.610Z,4.76
2023-03-15T07:19:13.335Z,4.76
2023-03-15T07:20:16.301Z,4.82
2023-03-15T07:21:19.508Z,4.78
2023-03-15T07:22:23.026Z,4.78
2023-03-15T07:23:25.972Z,4.79
2023-03-15T07:24:28.640Z,4.75
2023-03-15T07:25:31.455Z,4.74
2023-03-15T07:26:34.200Z,4.77
2023-03-15T07:27:36.882Z,4.73
2023-03-15T07:28:39.532Z,4.76
2023-03-15T07:29:42.442Z,4.72
2023-03-15T07:30:52.213Z,4.75
2023-03-15T07:31:54.960Z,4.74
2023-03-15T07:32:57.686Z,4.69
2023-03-15T07:34:00.642Z,4.69
2023-03-15T07:35:03.367Z,4.70
2023-03-15T07:36:07.249Z,4.69
2023-03-15T07:37:13.579Z,4.67
2023-03-15T07:38:16.267Z,4.66
2023-03-15T07:39:19.054Z,4.66
2023-03-15T07:40:21.783Z,4.67
2023-03-15T07:41:24.473Z,4.64
2023-03-15T07:42:33.629Z,4.64
2023-03-15T07:43:36.593Z,4.65
2023-03-15T07:44:50.752Z,4.69
2023-03-15T07:45:53.454Z,4.74
2023-03-15T07:46:56.239Z,4.74
2023-03-15T07:47:59.159Z,4.75
2023-03-15T07:49:01.831Z,4.78
2023-03-15T07:50:05.489Z,4.84
2023-03-15T07:51:08.346Z,4.86
2023-03-15T07:52:11.147Z,4.87
2023-03-15T07:53:13.904Z,4.86
2023-03-15T07:54:16.678Z,4.93
2023-03-15T07:55:19.589Z,4.96
2023-03-15T07:56:22.240Z,4.98
2023-03-15T07:57:25.844Z,5.02
2023-03-15T07:58:29.838Z,5.08
2023-03-15T07:59:33.718Z,5.14
2023-03-15T08:00:42.958Z,5.20
2023-03-15T08:01:45.779Z,5.24
2023-03-15T08:02:48.833Z,5.29
2023-03-15T08:03:51.604Z,5.32
2023-03-15T08:04:54.245Z,5.35
2023-03-15T08:05:57.038Z,5.35
2023-03-15T08:06:59.789Z,5.36
2023-03-15T08:08:02.779Z,5.38
2023-03-15T08:09:06.807Z,5.44
2023-03-15T08:10:09.773Z,5.50
2023-03-15T08:11:12.729Z,5.55
2023-03-15T08:12:15.770Z,5.61
2023-03-15T08:13:18.418Z,5.64
2023-03-15T08:14:21.200Z,5.67
2023-03-15T08:15:24.427Z,5.72
2023-03-15T08:17:04.644Z,5.75
2023-03-15T08:18:28.990Z,5.77
2023-03-15T08:19:31.780Z,5.82
2023-03-15T08:20:34.480Z,5.85
2023-03-15T08:21:37.218Z,5.86
2023-03-15T08:22:40.054Z,5.85
2023-03-15T08:23:42.701Z,5.83
2023-03-15T08:24:46.092Z,5.83
2023-03-15T08:25:50.106Z,5.84
2023-03-15T08:26:52.821Z,5.85
2023-03-15T08:27:56.278Z,5.86
2023-03-15T08:28:59.254Z,5.86
2023-03-15T08:30:01.904Z,5.86
2023-03-15T08:31:08.325Z,5.85
2023-03-15T08:32:11.105Z,5.85
2023-03-15T08:33:13.787Z,5.85
2023-03-15T08:34:16.496Z,5.84
2023-03-15T08:35:21.086Z,5.80
2023-03-15T08:36:23.784Z,5.77
2023-03-15T08:37:26.760Z,5.75
2023-03-15T08:38:29.471Z,5.75
2023-03-15T08:39:32.134Z,5.71
2023-03-15T08:40:34.861Z,5.69
2023-03-15T08:41:37.609Z,5.68
2023-03-15T08:42:40.407Z,5.67
2023-03-15T08:43:43.450Z,5.67
2023-03-15T08:44:46.112Z,5.68
2023-03-15T08:46:00.619Z,5.68
2023-03-15T08:47:05.307Z,5.71
2023-03-15T08:48:08.038Z,5.75
2023-03-15T08:49:10.975Z,5.79
2023-03-15T08:50:15.228Z,5.82
2023-03-15T08:51:17.991Z,5.83
2023-03-15T08:52:21.512Z,5.93
2023-03-15T08:53:24.160Z,5.98
2023-03-15T08:54:27.585Z,6.05
2023-03-15T08:55:30.799Z,6.12
2023-03-15T08:56:33.821Z,6.20
2023-03-15T08:57:36.878Z,6.20
2023-03-15T08:58:39.604Z,6.22
2023-03-15T08:59:43.842Z,6.19
2023-03-15T09:00:48.557Z,6.16
2023-03-15T09:01:51.251Z,6.12
2023-03-15T09:02:54.091Z,6.06
2023-03-15T09:03:56.893Z,5.96
2023-03-15T09:04:59.825Z,5.93
2023-03-15T09:06:02.497Z,5.96
2023-03-15T09:07:06.239Z,5.94
2023-03-15T09:08:09.208Z,5.92
2023-03-15T09:09:11.907Z,5.97
2023-03-15T09:10:15.827Z,6.00
2023-03-15T09:11:18.496Z,6.00
2023-03-15T09:12:21.503Z,5.98
2023-03-15T09:13:24.588Z,6.01
2023-03-15T09:14:27.373Z,6.05
2023-03-15T09:15:30.500Z,6.09
2023-03-15T09:16:33.182Z,6.08
2023-03-15T09:17:35.977Z,6.13
2023-03-15T09:18:40.615Z,6.14
2023-03-15T09:19:43.254Z,6.17
2023-03-15T09:20:46.105Z,6.16
2023-03-15T09:21:48.919Z,6.20
2023-03-15T09:22:52.771Z,6.20
2023-03-15T09:23:55.493Z,6.21
2023-03-15T09:24:58.185Z,6.19
2023-03-15T09:26:00.991Z,6.19
2023-03-15T09:27:03.704Z,6.18
2023-03-15T09:28:07.932Z,6.22
2023-03-15T09:29:10.746Z,6.22
2023-03-15T09:30:14.112Z,6.27
2023-03-15T09:31:16.868Z,6.25
2023-03-15T09:32:21.161Z,6.28
2023-03-15T09:33:23.851Z,6.34
2023-03-15T09:34:27.561Z,6.38
2023-03-15T09:35:33.491Z,6.44
2023-03-15T09:36:36.275Z,6.49
2023-03-15T09:37:38.988Z,6.52
2023-03-15T09:38:43.075Z,6.57
2023-03-15T09:39:45.692Z,6.58
2023-03-15T09:40:48.436Z,6.59
2023-03-15T09:41:53.637Z,6.63
2023-03-15T09:42:59.124Z,6.72
2023-03-15T09:44:09.363Z,6.78
2023-03-15T09:45:32.493Z,6.83
2023-03-15T09:47:04.504Z,6.89
2023-03-15T09:48:18.107Z,6.98
2023-03-15T09:49:28.394Z,7.07
2023-03-15T09:50:33.125Z,7.13
2023-03-15T09:51:48.084Z,7.10
2023-03-15T09:53:11.047Z,7.09
2023-03-15T09:54:18.154Z,7.13
2023-03-15T09:55:23.590Z,7.23
2023-03-15T09:56:49.292Z,7.28
2023-03-15T09:57:59.837Z,7.43
2023-03-15T09:59:03.085Z,7.59
2023-03-15T10:00:12.860Z,7.69
2023-03-15T10:01:17.192Z,7.72
2023-03-15T10:02:23.872Z,7.70
2023-03-15T10:03:29.380Z,7.79
2023-03-15T10:04:40.518Z,7.89
2023-03-15T10:05:45.926Z,7.98
2023-03-15T10:06:54.227Z,8.00
2023-03-15T10:07:57.646Z,7.98
2023-03-15T10:09:01.953Z,7.98
2023-03-15T10:10:08.950Z,8.01
2023-03-15T10:11:18.827Z,8.10
2023-03-15T10:12:26.465Z,8.12
2023-03-15T10:13:38.952Z,8.22
2023-03-15T10:15:00.853Z,8.30
2023-03-15T10:16:11.217Z,8.27
2023-03-15T10:17:15.767Z,8.33
2023-03-15T10:18:28.035Z,8.32
2023-03-15T10:19:50.258Z,8.39
2023-03-15T10:21:06.452Z,8.46
2023-03-15T10:22:10.190Z,8.52
2023-03-15T10:23:12.852Z,8.57
2023-03-15T10:24:34.548Z,8.54
2023-03-15T10:25:37.775Z,8.51
2023-03-15T10:26:42.213Z,8.52
2023-03-15T10:27:49.898Z,8.46
2023-03-15T11:12:27.661Z,7.87
2023-03-15T11:13:33.426Z,7.76
2023-03-15T11:14:43.562Z,7.74
2023-03-15T11:15:55.346Z,7.76
2023-03-15T11:16:59.140Z,7.82
2023-03-15T11:18:01.941Z,7.84
2023-03-15T11:19:15.334Z,7.88
2023-03-15T11:21:42.551Z,8.14
2023-03-15T11:22:45.418Z,8.20
2023-03-15T11:23:50.285Z,8.20
2023-03-15T11:24:54.832Z,8.13
2023-03-15T11:25:58.399Z,8.09
2023-03-15T11:27:04.053Z,8.10
2023-03-15T11:28:15.827Z,8.11
2023-03-15T11:29:34.488Z,8.08
2023-03-15T11:30:41.384Z,8.07
2023-03-15T11:31:44.460Z,8.09
2023-03-15T11:34:12.469Z,8.24
2023-03-15T11:35:39.931Z,8.29
2023-03-15T11:36:55.686Z,8.24
2023-03-15T11:38:15.446Z,8.19
2023-03-15T11:39:39.585Z,8.09
2023-03-15T11:40:51.140Z,8.06
2023-03-15T11:41:59.316Z,8.18
2023-03-15T11:43:15.381Z,8.20
2023-03-15T11:44:30.224Z,8.28
2023-03-15T11:45:43.405Z,8.38
2023-03-15T11:47:28.309Z,8.33
2023-03-15T11:48:57.219Z,8.25
2023-03-15T11:50:00.132Z,8.26
2023-03-15T11:51:03.240Z,8.26
2023-03-15T11:52:06.678Z,8.19
2023-03-15T11:53:12.655Z,8.18
2023-03-15T11:54:20.974Z,8.13
2023-03-15T11:55:28.847Z,8.16
2023-03-15T11:56:43.964Z,8.17
2023-03-15T11:57:49.512Z,8.16
2023-03-15T11:59:15.435Z,8.18
2023-03-15T12:00:34.545Z,8.17
2023-03-15T12:01:38.028Z,8.26
2023-03-15T12:02:49.006Z,8.35
2023-03-15T12:04:26.634Z,8.49
2023-03-15T12:05:49.655Z,8.56
2023-03-15T12:06:54.758Z,8.71
2023-03-15T12:08:15.658Z,8.75
2023-03-15T12:09:33.380Z,8.76
2023-03-15T12:10:46.433Z,8.77
2023-03-15T12:11:49.597Z,8.74
2023-03-15T12:12:58.972Z,8.67
2023-03-15T12:14:01.817Z,8.72
2023-03-15T12:15:19.805Z,8.73
2023-03-15T12:16:26.494Z,8.83
2023-03-15T12:17:37.327Z,8.84
2023-03-15T12:18:45.005Z,8.88
2023-03-15T12:19:47.969Z,8.95
2023-03-15T12:20:58.523Z,8.99
2023-03-15T12:22:01.383Z,9.08
2023-03-15T12:23:19.665Z,9.16
2023-03-15T12:24:27.281Z,9.23
2023-03-15T12:25:45.473Z,9.29
2023-03-15T12:27:18.600Z,9.37
2023-03-15T12:28:28.700Z,9.45
2023-03-15T12:29:34.006Z,9.48
2023-03-15T12:30:45.373Z,9.46
2023-03-15T12:32:03.360Z,9.40
2023-03-15T12:33:16.938Z,9.32
2023-03-15T12:34:51.199Z,9.34
2023-03-15T12:36:08.096Z,9.31
2023-03-15T12:37:16.862Z,9.31
2023-03-15T12:38:24.314Z,9.28
2023-03-15T12:39:39.163Z,9.28
2023-03-15T12:40:50.410Z,9.27
2023-03-15T12:41:53.250Z,9.33
2023-03-15T12:42:57.383Z,9.39
2023-03-15T12:44:21.925Z,9.41
2023-03-15T12:45:27.713Z,9.33
2023-03-15T12:46:36.852Z,9.31
2023-03-15T12:47:46.755Z,9.28
2023-03-15T12:49:18.578Z,9.27
2023-03-15T12:50:47.200Z,9.18
2023-03-15T12:51:59.365Z,9.03
2023-03-15T12:53:15.617Z,8.92
2023-03-15T12:54:18.932Z,8.77
2023-03-15T12:55:21.949Z,8.70
2023-03-15T12:56:42.593Z,8.67
2023-03-15T12:57:49.065Z,8.57
2023-03-15T12:58:58.286Z,8.56
2023-03-15T13:00:12.888Z,8.56
2023-03-15T13:01:17.757Z,8.56
2023-03-15T13:02:45.623Z,8.53
2023-03-15T13:03:48.593Z,8.48
2023-03-15T13:05:00.449Z,8.49
2023-03-15T13:06:13.230Z,8.49
2023-03-15T13:07:50.943Z,8.44
2023-03-15T13:08:58.017Z,8.39
2023-03-15T13:10:16.261Z,8.42
2023-03-15T13:12:00.421Z,8.38
2023-03-15T13:13:25.377Z,8.38
2023-03-15T13:14:39.828Z,8.36
2023-03-15T13:15:42.895Z,8.36
2023-03-15T13:16:56.429Z,8.37
2023-03-15T13:18:09.535Z,8.41
2023-03-15T13:19:18.943Z,8.48
2023-03-15T13:20:38.701Z,8.49
2023-03-15T13:22:05.781Z,8.49
2023-03-15T13:23:20.132Z,8.47
2023-03-15T13:24:36.045Z,8.46
2023-03-15T13:25:48.106Z,8.44
2023-03-15T13:27:30.248Z,8.36
2023-03-15T13:28:39.890Z,8.25
2023-03-15T13:29:42.703Z,8.21
2023-03-15T13:30:52.569Z,8.21
2023-03-15T13:32:16.470Z,8.15
2023-03-15T13:33:32.241Z,8.09
2023-03-15T13:34:35.699Z,8.08
2023-03-15T13:35:54.775Z,8.04
2023-03-15T13:36:59.096Z,8.07
2023-03-15T13:38:20.865Z,8.06
2023-03-15T13:39:32.536Z,8.06
2023-03-15T13:40:35.461Z,8.09
2023-03-15T13:41:38.699Z,8.13
2023-03-15T13:42:42.844Z,8.09
2023-03-15T13:43:46.608Z,8.09
2023-03-15T13:45:17.715Z,8.10
2023-03-15T13:46:26.801Z,8.04
2023-03-15T13:47:29.601Z,8.03
2023-03-15T13:48:35.577Z,8.05
2023-03-15T13:49:38.364Z,8.03
2023-03-15T13:50:41.160Z,8.02
2023-03-15T13:51:45.868Z,7.98
2023-03-15T13:52:49.193Z,7.94
2023-03-15T13:54:00.900Z,7.94
2023-03-15T13:55:05.409Z,7.89
2023-03-15T13:56:09.911Z,7.92
2023-03-15T13:57:16.476Z,7.93
2023-03-15T13:58:21.459Z,7.93
2023-03-15T13:59:30.148Z,7.90
2023-03-15T14:00:35.891Z,7.93
2023-03-15T14:01:42.492Z,7.95
2023-03-15T14:02:54.153Z,7.94
2023-03-15T14:04:05.798Z,7.98
2023-03-15T14:05:12.810Z,8.04
2023-03-15T14:06:22.655Z,8.07
2023-03-15T14:07:33.974Z,8.08
2023-03-15T14:08:38.550Z,8.07
2023-03-15T14:09:41.332Z,8.07
2023-03-15T14:10:56.866Z,8.07
2023-03-15T14:12:02.915Z,8.04
2023-03-15T14:13:25.676Z,8.02
2023-03-15T14:14:31.182Z,7.97
2023-03-15T14:15:41.503Z,7.94
2023-03-15T14:17:02.885Z,7.91
2023-03-15T14:18:09.259Z,7.83
2023-03-15T14:19:19.216Z,7.83
2023-03-15T14:20:28.590Z,7.79
2023-03-15T14:21:32.504Z,7.75
2023-03-15T14:22:36.461Z,7.69
2023-03-15T14:23:44.500Z,7.64
2023-03-15T14:24:51.098Z,7.60
2023-03-15T14:25:56.806Z,7.56
2023-03-15T14:27:02.244Z,7.51
2023-03-15T14:28:06.176Z,7.47
2023-03-15T14:29:32.288Z,7.43
2023-03-15T14:30:37.494Z,7.35
2023-03-15T14:31:46.505Z,7.36
2023-03-15T14:32:55.771Z,7.31
2023-03-15T14:34:08.111Z,7.32
2023-03-15T14:35:49.091Z,7.26
2023-03-15T14:36:54.260Z,7.19
2023-03-15T14:38:03.328Z,7.19
2023-03-15T14:39:18.837Z,7.16
2023-03-15T14:40:29.878Z,7.15
2023-03-15T14:41:33.316Z,7.11
2023-03-15T14:43:03.035Z,7.12
2023-03-15T14:44:43.357Z,7.08
2023-03-15T14:45:48.223Z,7.06
2023-03-15T14:46:51.280Z,7.05
2023-03-15T14:48:06.919Z,7.02
2023-03-15T14:49:13.538Z,7.06
2023-03-15T14:50:19.877Z,7.03
2023-03-15T14:51:24.733Z,7.05
2023-03-15T14:52:27.673Z,7.05
2023-03-15T14:53:36.815Z,7.03
2023-03-15T14:54:49.686Z,7.06
2023-03-15T14:55:52.565Z,7.07
2023-03-15T14:56:55.332Z,7.04
2023-03-15T14:57:58.100Z,7.09
2023-03-15T14:59:03.303Z,7.12
2023-03-15T15:00:10.451Z,7.13
2023-03-15T15:01:17.849Z,7.12
2023-03-15T15:02:20.897Z,7.13
2023-03-15T15:03:48.539Z,7.12
2023-03-15T15:04:51.937Z,7.09
2023-03-15T15:05:54.859Z,7.10
2023-03-15T15:06:58.048Z,7.10
2023-03-15T15:08:07.082Z,7.12
2023-03-15T15:09:10.916Z,7.10
2023-03-15T15:10:14.089Z,7.14
2023-03-15T15:11:16.930Z,7.14
2023-03-15T15:12:19.784Z,7.12
2023-03-15T15:13:28.735Z,7.11
2023-03-15T15:14:31.755Z,7.10
2023-03-15T15:15:53.522Z,7.08
2023-03-15T15:16:57.416Z,7.06
2023-03-15T15:18:00.229Z,7.03
2023-03-15T15:19:03.055Z,7.01
2023-03-15T15:20:07.514Z,6.99
2023-03-15T15:21:33.928Z,6.96
2023-03-15T15:22:36.926Z,6.93
2023-03-15T15:23:56.990Z,6.90
2023-03-15T15:25:00.568Z,6.81
2023-03-15T15:26:05.468Z,6.79
2023-03-15T15:27:10.772Z,6.78
2023-03-15T15:28:27.372Z,6.77
2023-03-15T15:29:36.425Z,6.75
2023-03-15T15:30:39.206Z,6.72
2023-03-15T15:31:43.472Z,6.71
2023-03-15T15:32:46.995Z,6.69
2023-03-15T15:33:51.344Z,6.67
2023-03-15T15:34:54.939Z,6.64
2023-03-15T15:35:58.001Z,6.62
2023-03-15T15:37:01.834Z,6.60
2023-03-15T15:38:11.316Z,6.55
2023-03-15T15:39:22.894Z,6.50
2023-03-15T15:40:32.230Z,6.49
2023-03-15T15:41:35.409Z,6.47
2023-03-15T15:42:38.163Z,6.46
2023-03-15T15:43:42.135Z,6.43
2023-03-15T15:44:46.025Z,6.38
2023-03-15T15:45:48.903Z,6.38
2023-03-15T15:46:52.020Z,6.36
2023-03-15T15:47:55.193Z,6.34
2023-03-15T15:48:58.830Z,6.31
2023-03-15T15:50:01.653Z,6.28
2023-03-15T15:51:16.556Z,6.23
2023-03-15T15:52:19.334Z,6.20
2023-03-15T15:53:22.243Z,6.16